Etusivu
METAR-TAF:

METAR-TAF

Lentoasemat :

Alattio, Norja

Alattion lentoasema

Leveyspiiri: 69-59N, Pituuspiiri: 023-22E, korkeus merenpinnasta: 0 m

Tämänhetkinen sää

Tämä raportti tehtiin 15 minuuttia sitten, kello 09.50 UTC
Tuuli 7 kn luoteesta
Lämpötila 5°C
Kosteus 48%
Ilmanpaine 1020 hPa
Näkyvyys 10 km tai enemmän
Muutamia pilviä 3800 ft:n korkeudessa

METAR: ENAT 270950Z 32007KT 9999 FEW038 05/M05 Q1020 RMK WIND 700FT 34009KT

Aika: 12:05 (10:05 UTC)

Sääennuste

Tämä raportti tehtiin 2 tuntia ja 5 minuuttia sitten, kello 08.00 UTC
Ennuste voimassa 27. päivästä klo 09 UTC - 27. päivään klo 14 UTC
Tuuli 8 kn pohjoisen/luoteesta
Näkyvyys 10 km tai enemmän
Muutamia pilviä 1500 ft:n korkeudessa, Kasvava cumulus-pilvi.
Hajanaisia pilviä 4000 ft:n korkeudessa

TAF: ENAT 270800Z 2709/2714 33008KT 9999 FEW015TCU SCT040

Säähavainnot ja -ennusteet yli 4000 lentoasemalta (METAR- ja TAF-raportit).

Käytössä olevat sääasemat on merkitty karttaan keltaisilla ja punaisilla pisteillä.

Aseta hiiri pisteen päälle nähdäksesi sääaseman nimen.

Klikkaa sitten nähdäksesi säähavainnot ja -ennusteet.

Kartan vaihtaminen: klikkaa mustalla rastilla varustettuja vihreitä pisteitä, niin voit zoomata sisään; viivalla varustettua vihreää pistettä, niin voit zoomata ulos tai vihreitä nuolia, niin pääset viereisille kartoille.


METAR-TAF: